sensor_id;sensor_type;location;lat;lon;timestamp;P1;durP1;ratioP1;P2;durP2;ratioP2
3487;SDS011;38546;48.170;11.724;2023-06-01T00:01:29;12.33;;;9.20;;
3487;SDS011;38546;48.170;11.724;2023-06-01T00:04:22;14.60;;;10.07;;
3487;SDS011;38546;48.170;11.724;2023-06-01T00:07:11;14.80;;;10.17;;
3487;SDS011;38546;48.170;11.724;2023-06-01T00:10:00;12.73;;;9.50;;
3487;SDS011;38546;48.170;11.724;2023-06-01T00:12:49;16.10;;;9.30;;
3487;SDS011;38546;48.170;11.724;2023-06-01T00:15:38;14.87;;;10.30;;
3487;SDS011;38546;48.170;11.724;2023-06-01T00:18:28;10.73;;;9.17;;
3487;SDS011;38546;48.170;11.724;2023-06-01T00:21:17;19.10;;;9.20;;
3487;SDS011;38546;48.170;11.724;2023-06-01T00:24:08;12.30;;;10.00;;
3487;SDS011;38546;48.170;11.724;2023-06-01T00:26:58;8.67;;;7.77;;
3487;SDS011;38546;48.170;11.724;2023-06-01T00:29:48;9.33;;;8.10;;
3487;SDS011;38546;48.170;11.724;2023-06-01T00:32:38;11.60;;;9.00;;
3487;SDS011;38546;48.170;11.724;2023-06-01T00:35:28;12.40;;;9.00;;
3487;SDS011;38546;48.170;11.724;2023-06-01T00:38:16;11.50;;;8.50;;
3487;SDS011;38546;48.170;11.724;2023-06-01T00:41:06;10.10;;;7.73;;
3487;SDS011;38546;48.170;11.724;2023-06-01T00:43:56;13.10;;;7.93;;
3487;SDS011;38546;48.170;11.724;2023-06-01T00:46:45;13.57;;;9.03;;
3487;SDS011;38546;48.170;11.724;2023-06-01T00:49:34;16.43;;;8.60;;
3487;SDS011;38546;48.170;11.724;2023-06-01T00:52:24;10.43;;;8.03;;
3487;SDS011;38546;48.170;11.724;2023-06-01T00:55:14;15.47;;;9.40;;
3487;SDS011;38546;48.170;11.724;2023-06-01T00:58:03;10.80;;;8.03;;
3487;SDS011;38546;48.170;11.724;2023-06-01T01:00:55;11.40;;;8.80;;
3487;SDS011;38546;48.170;11.724;2023-06-01T01:03:48;13.20;;;8.83;;
3487;SDS011;38546;48.170;11.724;2023-06-01T01:06:50;10.60;;;8.87;;
3487;SDS011;38546;48.170;11.724;2023-06-01T01:11:21;13.10;;;8.73;;
3487;SDS011;38546;48.170;11.724;2023-06-01T01:14:18;12.07;;;8.90;;
3487;SDS011;38546;48.170;11.724;2023-06-01T01:17:14;12.73;;;8.60;;
3487;SDS011;38546;48.170;11.724;2023-06-01T01:20:28;10.30;;;8.27;;
3487;SDS011;38546;48.170;11.724;2023-06-01T01:31:04;10.93;;;8.90;;
3487;SDS011;38546;48.170;11.724;2023-06-01T01:33:58;12.80;;;9.40;;
3487;SDS011;38546;48.170;11.724;2023-06-01T01:36:50;14.97;;;10.00;;
3487;SDS011;38546;48.170;11.724;2023-06-01T01:39:39;16.30;;;10.10;;
3487;SDS011;38546;48.170;11.724;2023-06-01T01:42:28;10.53;;;8.93;;
3487;SDS011;38546;48.170;11.724;2023-06-01T01:45:18;10.63;;;8.97;;
3487;SDS011;38546;48.170;11.724;2023-06-01T01:48:20;13.63;;;9.67;;
3487;SDS011;38546;48.170;11.724;2023-06-01T01:52:17;12.63;;;9.30;;
3487;SDS011;38546;48.170;11.724;2023-06-01T01:55:11;12.80;;;8.20;;
3487;SDS011;38546;48.170;11.724;2023-06-01T01:58:04;12.93;;;8.70;;
3487;SDS011;38546;48.170;11.724;2023-06-01T02:00:54;12.27;;;9.77;;
3487;SDS011;38546;48.170;11.724;2023-06-01T02:03:45;11.47;;;9.50;;
3487;SDS011;38546;48.170;11.724;2023-06-01T02:06:34;12.10;;;8.37;;
3487;SDS011;38546;48.170;11.724;2023-06-01T02:09:25;14.50;;;10.40;;
3487;SDS011;38546;48.170;11.724;2023-06-01T02:12:15;13.20;;;9.80;;
3487;SDS011;38546;48.170;11.724;2023-06-01T02:15:04;12.33;;;9.30;;
3487;SDS011;38546;48.170;11.724;2023-06-01T02:17:55;16.67;;;10.13;;
3487;SDS011;38546;48.170;11.724;2023-06-01T02:20:45;13.53;;;9.27;;
3487;SDS011;38546;48.170;11.724;2023-06-01T02:23:34;12.93;;;8.80;;
3487;SDS011;38546;48.170;11.724;2023-06-01T02:26:28;19.93;;;10.47;;
3487;SDS011;38546;48.170;11.724;2023-06-01T02:29:17;13.20;;;9.10;;
3487;SDS011;38546;48.170;11.724;2023-06-01T02:32:10;15.77;;;9.33;;
3487;SDS011;38546;48.170;11.724;2023-06-01T02:35:00;12.97;;;11.13;;
3487;SDS011;38546;48.170;11.724;2023-06-01T02:37:49;14.37;;;10.30;;
3487;SDS011;38546;48.170;11.724;2023-06-01T02:40:39;13.30;;;9.10;;
3487;SDS011;38546;48.170;11.724;2023-06-01T02:43:28;13.03;;;9.87;;
3487;SDS011;38546;48.170;11.724;2023-06-01T02:46:18;13.10;;;10.10;;
3487;SDS011;38546;48.170;11.724;2023-06-01T02:49:08;17.63;;;10.10;;
3487;SDS011;38546;48.170;11.724;2023-06-01T02:51:57;14.20;;;11.00;;
3487;SDS011;38546;48.170;11.724;2023-06-01T02:54:46;15.97;;;12.03;;
3487;SDS011;38546;48.170;11.724;2023-06-01T02:57:35;12.60;;;9.10;;
3487;SDS011;38546;48.170;11.724;2023-06-01T03:00:25;14.73;;;10.70;;
3487;SDS011;38546;48.170;11.724;2023-06-01T03:03:16;14.67;;;10.27;;
3487;SDS011;38546;48.170;11.724;2023-06-01T03:06:05;13.50;;;9.30;;
3487;SDS011;38546;48.170;11.724;2023-06-01T03:08:55;14.90;;;10.80;;
3487;SDS011;38546;48.170;11.724;2023-06-01T03:11:44;12.37;;;9.80;;
3487;SDS011;38546;48.170;11.724;2023-06-01T03:14:33;13.07;;;9.50;;
3487;SDS011;38546;48.170;11.724;2023-06-01T03:17:23;13.20;;;9.87;;
3487;SDS011;38546;48.170;11.724;2023-06-01T03:20:12;10.80;;;9.40;;
3487;SDS011;38546;48.170;11.724;2023-06-01T03:23:04;18.17;;;10.17;;
3487;SDS011;38546;48.170;11.724;2023-06-01T03:25:53;17.27;;;9.10;;
3487;SDS011;38546;48.170;11.724;2023-06-01T03:28:44;12.20;;;9.23;;
3487;SDS011;38546;48.170;11.724;2023-06-01T03:31:33;13.00;;;9.60;;
3487;SDS011;38546;48.170;11.724;2023-06-01T03:34:23;14.30;;;10.17;;
3487;SDS011;38546;48.170;11.724;2023-06-01T03:37:12;15.73;;;9.50;;
3487;SDS011;38546;48.170;11.724;2023-06-01T03:40:02;13.43;;;9.10;;
3487;SDS011;38546;48.170;11.724;2023-06-01T03:42:59;13.90;;;10.00;;
3487;SDS011;38546;48.170;11.724;2023-06-01T03:45:48;12.90;;;9.87;;
3487;SDS011;38546;48.170;11.724;2023-06-01T03:48:38;15.80;;;10.20;;
3487;SDS011;38546;48.170;11.724;2023-06-01T03:51:27;12.40;;;9.50;;
3487;SDS011;38546;48.170;11.724;2023-06-01T03:54:17;13.20;;;9.00;;
3487;SDS011;38546;48.170;11.724;2023-06-01T03:57:06;19.27;;;10.90;;
3487;SDS011;38546;48.170;11.724;2023-06-01T03:59:55;12.60;;;9.23;;
3487;SDS011;38546;48.170;11.724;2023-06-01T04:02:51;15.17;;;10.20;;
3487;SDS011;38546;48.170;11.724;2023-06-01T04:05:47;14.47;;;10.20;;
3487;SDS011;38546;48.170;11.724;2023-06-01T04:08:38;12.80;;;9.30;;
3487;SDS011;38546;48.170;11.724;2023-06-01T04:11:38;15.80;;;10.70;;
3487;SDS011;38546;48.170;11.724;2023-06-01T04:14:28;11.90;;;9.40;;
3487;SDS011;38546;48.170;11.724;2023-06-01T04:17:17;13.27;;;9.73;;
3487;SDS011;38546;48.170;11.724;2023-06-01T04:20:13;14.43;;;10.20;;
3487;SDS011;38546;48.170;11.724;2023-06-01T04:23:05;15.57;;;11.30;;
3487;SDS011;38546;48.170;11.724;2023-06-01T04:25:54;18.70;;;12.07;;
3487;SDS011;38546;48.170;11.724;2023-06-01T04:28:48;15.90;;;10.20;;
3487;SDS011;38546;48.170;11.724;2023-06-01T04:31:37;15.27;;;11.60;;
3487;SDS011;38546;48.170;11.724;2023-06-01T04:34:27;14.30;;;10.57;;
3487;SDS011;38546;48.170;11.724;2023-06-01T04:37:18;13.70;;;11.03;;
3487;SDS011;38546;48.170;11.724;2023-06-01T04:40:10;14.67;;;12.00;;
3487;SDS011;38546;48.170;11.724;2023-06-01T04:43:01;15.07;;;11.40;;
3487;SDS011;38546;48.170;11.724;2023-06-01T04:45:51;15.37;;;11.10;;
3487;SDS011;38546;48.170;11.724;2023-06-01T04:48:41;15.77;;;10.13;;
3487;SDS011;38546;48.170;11.724;2023-06-01T04:51:30;17.43;;;10.80;;
3487;SDS011;38546;48.170;11.724;2023-06-01T04:54:19;17.43;;;12.53;;
3487;SDS011;38546;48.170;11.724;2023-06-01T04:57:08;15.17;;;11.47;;
3487;SDS011;38546;48.170;11.724;2023-06-01T04:59:58;19.03;;;12.70;;
3487;SDS011;38546;48.170;11.724;2023-06-01T05:02:47;17.97;;;11.60;;
3487;SDS011;38546;48.170;11.724;2023-06-01T05:05:38;17.20;;;11.60;;
3487;SDS011;38546;48.170;11.724;2023-06-01T05:08:27;17.63;;;11.50;;
3487;SDS011;38546;48.170;11.724;2023-06-01T05:11:16;21.40;;;12.30;;
3487;SDS011;38546;48.170;11.724;2023-06-01T05:14:06;16.90;;;11.70;;
3487;SDS011;38546;48.170;11.724;2023-06-01T05:16:56;16.43;;;10.60;;
3487;SDS011;38546;48.170;11.724;2023-06-01T05:19:45;18.37;;;12.47;;
3487;SDS011;38546;48.170;11.724;2023-06-01T05:22:35;17.23;;;11.50;;
3487;SDS011;38546;48.170;11.724;2023-06-01T05:25:24;19.77;;;12.30;;
3487;SDS011;38546;48.170;11.724;2023-06-01T05:28:14;25.30;;;12.90;;
3487;SDS011;38546;48.170;11.724;2023-06-01T05:31:03;16.50;;;11.53;;
3487;SDS011;38546;48.170;11.724;2023-06-01T05:33:54;15.30;;;9.60;;
3487;SDS011;38546;48.170;11.724;2023-06-01T05:36:44;16.50;;;12.60;;
3487;SDS011;38546;48.170;11.724;2023-06-01T05:39:33;17.30;;;12.13;;
3487;SDS011;38546;48.170;11.724;2023-06-01T05:42:22;16.60;;;13.27;;
3487;SDS011;38546;48.170;11.724;2023-06-01T05:45:12;22.97;;;11.60;;
3487;SDS011;38546;48.170;11.724;2023-06-01T05:48:02;18.53;;;10.50;;
3487;SDS011;38546;48.170;11.724;2023-06-01T05:50:51;18.60;;;11.00;;
3487;SDS011;38546;48.170;11.724;2023-06-01T05:53:41;16.37;;;12.70;;
3487;SDS011;38546;48.170;11.724;2023-06-01T05:56:30;15.17;;;12.20;;
3487;SDS011;38546;48.170;11.724;2023-06-01T05:59:19;18.30;;;12.53;;
3487;SDS011;38546;48.170;11.724;2023-06-01T06:02:08;17.50;;;11.00;;
3487;SDS011;38546;48.170;11.724;2023-06-01T06:04:57;16.00;;;10.63;;
3487;SDS011;38546;48.170;11.724;2023-06-01T06:07:46;15.53;;;9.20;;
3487;SDS011;38546;48.170;11.724;2023-06-01T06:10:35;18.93;;;11.27;;
3487;SDS011;38546;48.170;11.724;2023-06-01T06:13:24;15.00;;;10.23;;
3487;SDS011;38546;48.170;11.724;2023-06-01T06:16:13;14.80;;;10.80;;
3487;SDS011;38546;48.170;11.724;2023-06-01T06:19:02;10.77;;;8.83;;
3487;SDS011;38546;48.170;11.724;2023-06-01T06:21:51;12.43;;;9.63;;
3487;SDS011;38546;48.170;11.724;2023-06-01T06:24:40;16.43;;;11.23;;
3487;SDS011;38546;48.170;11.724;2023-06-01T06:27:30;14.47;;;10.83;;
3487;SDS011;38546;48.170;11.724;2023-06-01T06:30:19;15.40;;;11.13;;
3487;SDS011;38546;48.170;11.724;2023-06-01T06:33:08;14.50;;;10.70;;
3487;SDS011;38546;48.170;11.724;2023-06-01T06:35:57;13.40;;;8.80;;
3487;SDS011;38546;48.170;11.724;2023-06-01T06:38:46;14.57;;;9.97;;
3487;SDS011;38546;48.170;11.724;2023-06-01T06:41:35;16.37;;;10.20;;
3487;SDS011;38546;48.170;11.724;2023-06-01T06:44:25;15.50;;;11.27;;
3487;SDS011;38546;48.170;11.724;2023-06-01T06:47:14;19.30;;;10.40;;
3487;SDS011;38546;48.170;11.724;2023-06-01T06:50:07;11.87;;;9.37;;
3487;SDS011;38546;48.170;11.724;2023-06-01T06:52:56;15.80;;;10.20;;
3487;SDS011;38546;48.170;11.724;2023-06-01T06:55:47;11.07;;;8.07;;
3487;SDS011;38546;48.170;11.724;2023-06-01T06:58:36;12.40;;;9.57;;
3487;SDS011;38546;48.170;11.724;2023-06-01T07:01:25;16.03;;;12.13;;
3487;SDS011;38546;48.170;11.724;2023-06-01T07:04:15;16.43;;;10.90;;
3487;SDS011;38546;48.170;11.724;2023-06-01T07:07:04;11.87;;;10.33;;
3487;SDS011;38546;48.170;11.724;2023-06-01T07:09:53;15.53;;;11.13;;
3487;SDS011;38546;48.170;11.724;2023-06-01T07:12:43;14.17;;;10.50;;
3487;SDS011;38546;48.170;11.724;2023-06-01T07:15:33;16.50;;;9.70;;
3487;SDS011;38546;48.170;11.724;2023-06-01T07:18:22;15.97;;;10.47;;
3487;SDS011;38546;48.170;11.724;2023-06-01T07:21:12;19.00;;;11.13;;
3487;SDS011;38546;48.170;11.724;2023-06-01T07:24:00;11.87;;;9.43;;
3487;SDS011;38546;48.170;11.724;2023-06-01T07:26:50;15.30;;;8.80;;
3487;SDS011;38546;48.170;11.724;2023-06-01T07:29:40;11.93;;;9.23;;
3487;SDS011;38546;48.170;11.724;2023-06-01T07:32:29;12.73;;;9.80;;
3487;SDS011;38546;48.170;11.724;2023-06-01T07:35:19;12.73;;;8.60;;
3487;SDS011;38546;48.170;11.724;2023-06-01T07:38:08;16.17;;;10.90;;
3487;SDS011;38546;48.170;11.724;2023-06-01T07:40:57;15.00;;;10.07;;
3487;SDS011;38546;48.170;11.724;2023-06-01T07:43:47;10.93;;;9.57;;
3487;SDS011;38546;48.170;11.724;2023-06-01T07:46:35;13.90;;;10.07;;
3487;SDS011;38546;48.170;11.724;2023-06-01T07:49:25;19.53;;;9.53;;
3487;SDS011;38546;48.170;11.724;2023-06-01T07:52:14;11.57;;;7.80;;
3487;SDS011;38546;48.170;11.724;2023-06-01T07:55:04;19.93;;;11.20;;
3487;SDS011;38546;48.170;11.724;2023-06-01T07:57:53;10.00;;;8.23;;
3487;SDS011;38546;48.170;11.724;2023-06-01T08:00:43;14.70;;;9.80;;
3487;SDS011;38546;48.170;11.724;2023-06-01T08:03:32;16.10;;;9.80;;
3487;SDS011;38546;48.170;11.724;2023-06-01T08:06:22;9.50;;;8.30;;
3487;SDS011;38546;48.170;11.724;2023-06-01T08:09:12;17.73;;;9.83;;
3487;SDS011;38546;48.170;11.724;2023-06-01T08:12:02;11.40;;;9.00;;
3487;SDS011;38546;48.170;11.724;2023-06-01T08:14:52;14.63;;;10.40;;
3487;SDS011;38546;48.170;11.724;2023-06-01T08:17:41;12.10;;;9.73;;
3487;SDS011;38546;48.170;11.724;2023-06-01T08:20:30;11.43;;;9.00;;
3487;SDS011;38546;48.170;11.724;2023-06-01T08:23:19;17.70;;;9.70;;
3487;SDS011;38546;48.170;11.724;2023-06-01T08:26:11;12.93;;;8.80;;
3487;SDS011;38546;48.170;11.724;2023-06-01T08:29:00;15.40;;;10.60;;
3487;SDS011;38546;48.170;11.724;2023-06-01T08:31:50;15.20;;;9.93;;
3487;SDS011;38546;48.170;11.724;2023-06-01T08:34:39;16.53;;;12.27;;
3487;SDS011;38546;48.170;11.724;2023-06-01T08:37:29;17.57;;;10.30;;
3487;SDS011;38546;48.170;11.724;2023-06-01T08:40:19;10.97;;;9.20;;
3487;SDS011;38546;48.170;11.724;2023-06-01T08:43:11;16.87;;;10.87;;
3487;SDS011;38546;48.170;11.724;2023-06-01T08:46:09;13.27;;;10.87;;
3487;SDS011;38546;48.170;11.724;2023-06-01T08:49:01;15.50;;;10.83;;
3487;SDS011;38546;48.170;11.724;2023-06-01T08:51:51;12.93;;;9.63;;
3487;SDS011;38546;48.170;11.724;2023-06-01T08:54:43;16.50;;;9.47;;
3487;SDS011;38546;48.170;11.724;2023-06-01T08:57:32;12.43;;;9.03;;
3487;SDS011;38546;48.170;11.724;2023-06-01T09:00:22;11.13;;;9.10;;
3487;SDS011;38546;48.170;11.724;2023-06-01T09:03:12;18.93;;;8.93;;
3487;SDS011;38546;48.170;11.724;2023-06-01T09:06:02;10.63;;;9.40;;
3487;SDS011;38546;48.170;11.724;2023-06-01T09:08:52;11.97;;;9.20;;
3487;SDS011;38546;48.170;11.724;2023-06-01T09:11:42;12.50;;;9.50;;
3487;SDS011;38546;48.170;11.724;2023-06-01T09:14:32;9.07;;;8.10;;
3487;SDS011;38546;48.170;11.724;2023-06-01T09:17:22;13.67;;;9.27;;
3487;SDS011;38546;48.170;11.724;2023-06-01T09:20:13;14.57;;;8.20;;
3487;SDS011;38546;48.170;11.724;2023-06-01T09:23:10;12.37;;;9.00;;
3487;SDS011;38546;48.170;11.724;2023-06-01T09:26:12;11.53;;;9.00;;
3487;SDS011;38546;48.170;11.724;2023-06-01T09:29:03;16.00;;;8.43;;
3487;SDS011;38546;48.170;11.724;2023-06-01T09:31:54;14.30;;;9.07;;
3487;SDS011;38546;48.170;11.724;2023-06-01T09:34:44;9.53;;;8.20;;
3487;SDS011;38546;48.170;11.724;2023-06-01T09:37:36;11.33;;;8.00;;
3487;SDS011;38546;48.170;11.724;2023-06-01T09:40:27;9.80;;;7.27;;
3487;SDS011;38546;48.170;11.724;2023-06-01T09:43:20;12.03;;;8.00;;
3487;SDS011;38546;48.170;11.724;2023-06-01T09:46:10;12.00;;;8.10;;
3487;SDS011;38546;48.170;11.724;2023-06-01T09:49:05;7.90;;;7.20;;
3487;SDS011;38546;48.170;11.724;2023-06-01T09:52:09;10.77;;;8.17;;
3487;SDS011;38546;48.170;11.724;2023-06-01T09:55:07;14.27;;;8.17;;
3487;SDS011;38546;48.170;11.724;2023-06-01T10:01:10;10.00;;;7.33;;
3487;SDS011;38546;48.170;11.724;2023-06-01T10:04:02;10.73;;;8.40;;
3487;SDS011;38546;48.170;11.724;2023-06-01T10:06:57;11.63;;;8.13;;
3487;SDS011;38546;48.170;11.724;2023-06-01T10:09:51;10.60;;;8.03;;
3487;SDS011;38546;48.170;11.724;2023-06-01T10:12:44;9.20;;;7.63;;
3487;SDS011;38546;48.170;11.724;2023-06-01T10:15:34;9.73;;;7.60;;
3487;SDS011;38546;48.170;11.724;2023-06-01T10:18:25;9.97;;;8.07;;
3487;SDS011;38546;48.170;11.724;2023-06-01T10:21:15;8.63;;;7.73;;
3487;SDS011;38546;48.170;11.724;2023-06-01T10:24:06;11.83;;;7.50;;
3487;SDS011;38546;48.170;11.724;2023-06-01T10:31:40;10.27;;;7.83;;
3487;SDS011;38546;48.170;11.724;2023-06-01T10:35:04;14.47;;;7.93;;
3487;SDS011;38546;48.170;11.724;2023-06-01T10:38:29;9.77;;;7.87;;
3487;SDS011;38546;48.170;11.724;2023-06-01T10:41:29;8.57;;;7.50;;
3487;SDS011;38546;48.170;11.724;2023-06-01T10:54:27;7.27;;;6.53;;
3487;SDS011;38546;48.170;11.724;2023-06-01T10:57:25;11.27;;;7.33;;
3487;SDS011;38546;48.170;11.724;2023-06-01T11:00:18;7.40;;;6.67;;
3487;SDS011;38546;48.170;11.724;2023-06-01T11:03:15;8.23;;;7.43;;
3487;SDS011;38546;48.170;11.724;2023-06-01T11:06:05;9.73;;;7.57;;
3487;SDS011;38546;48.170;11.724;2023-06-01T11:09:20;13.33;;;7.10;;
3487;SDS011;38546;48.170;11.724;2023-06-01T11:12:09;11.83;;;7.93;;
3487;SDS011;38546;48.170;11.724;2023-06-01T11:15:08;9.00;;;7.47;;
3487;SDS011;38546;48.170;11.724;2023-06-01T11:18:23;12.13;;;7.40;;
3487;SDS011;38546;48.170;11.724;2023-06-01T11:21:46;8.20;;;7.30;;
3487;SDS011;38546;48.170;11.724;2023-06-01T11:24:36;12.00;;;7.63;;
3487;SDS011;38546;48.170;11.724;2023-06-01T11:27:26;8.00;;;7.20;;
3487;SDS011;38546;48.170;11.724;2023-06-01T11:30:18;7.90;;;7.10;;
3487;SDS011;38546;48.170;11.724;2023-06-01T11:33:08;8.47;;;7.43;;
3487;SDS011;38546;48.170;11.724;2023-06-01T11:36:00;11.63;;;8.53;;
3487;SDS011;38546;48.170;11.724;2023-06-01T11:38:54;11.73;;;7.23;;
3487;SDS011;38546;48.170;11.724;2023-06-01T11:41:44;8.77;;;7.70;;
3487;SDS011;38546;48.170;11.724;2023-06-01T11:44:35;10.03;;;7.77;;
3487;SDS011;38546;48.170;11.724;2023-06-01T11:47:29;9.17;;;7.23;;
3487;SDS011;38546;48.170;11.724;2023-06-01T11:50:20;12.07;;;7.40;;
3487;SDS011;38546;48.170;11.724;2023-06-01T11:53:11;7.73;;;6.70;;
3487;SDS011;38546;48.170;11.724;2023-06-01T11:56:00;11.27;;;7.77;;
3487;SDS011;38546;48.170;11.724;2023-06-01T11:58:56;9.27;;;7.53;;
3487;SDS011;38546;48.170;11.724;2023-06-01T12:01:47;8.33;;;7.17;;
3487;SDS011;38546;48.170;11.724;2023-06-01T12:04:38;8.60;;;7.60;;
3487;SDS011;38546;48.170;11.724;2023-06-01T12:07:28;11.43;;;7.83;;
3487;SDS011;38546;48.170;11.724;2023-06-01T12:10:18;11.30;;;7.43;;
3487;SDS011;38546;48.170;11.724;2023-06-01T12:13:09;9.20;;;6.90;;
3487;SDS011;38546;48.170;11.724;2023-06-01T12:15:59;12.47;;;7.27;;
3487;SDS011;38546;48.170;11.724;2023-06-01T12:18:48;9.50;;;7.67;;
3487;SDS011;38546;48.170;11.724;2023-06-01T12:21:38;9.27;;;7.47;;
3487;SDS011;38546;48.170;11.724;2023-06-01T12:24:31;10.83;;;7.93;;
3487;SDS011;38546;48.170;11.724;2023-06-01T12:27:22;9.23;;;7.10;;
3487;SDS011;38546;48.170;11.724;2023-06-01T12:30:20;9.83;;;8.10;;
3487;SDS011;38546;48.170;11.724;2023-06-01T12:33:28;11.80;;;7.40;;
3487;SDS011;38546;48.170;11.724;2023-06-01T12:36:28;12.07;;;6.93;;
3487;SDS011;38546;48.170;11.724;2023-06-01T12:39:32;11.40;;;8.23;;
3487;SDS011;38546;48.170;11.724;2023-06-01T12:42:37;10.30;;;7.43;;
3487;SDS011;38546;48.170;11.724;2023-06-01T12:45:35;11.13;;;8.67;;
3487;SDS011;38546;48.170;11.724;2023-06-01T12:48:30;8.40;;;7.57;;
3487;SDS011;38546;48.170;11.724;2023-06-01T12:51:24;8.43;;;7.53;;
3487;SDS011;38546;48.170;11.724;2023-06-01T12:54:13;11.20;;;6.73;;
3487;SDS011;38546;48.170;11.724;2023-06-01T12:57:04;14.03;;;7.80;;
3487;SDS011;38546;48.170;11.724;2023-06-01T13:00:02;8.80;;;7.20;;
3487;SDS011;38546;48.170;11.724;2023-06-01T13:02:53;10.43;;;7.87;;
3487;SDS011;38546;48.170;11.724;2023-06-01T13:05:43;9.97;;;7.57;;
3487;SDS011;38546;48.170;11.724;2023-06-01T13:08:35;9.97;;;7.57;;
3487;SDS011;38546;48.170;11.724;2023-06-01T13:11:25;9.20;;;7.37;;
3487;SDS011;38546;48.170;11.724;2023-06-01T13:14:15;12.33;;;9.23;;
3487;SDS011;38546;48.170;11.724;2023-06-01T13:17:05;9.87;;;8.33;;
3487;SDS011;38546;48.170;11.724;2023-06-01T13:19:54;8.50;;;6.53;;
3487;SDS011;38546;48.170;11.724;2023-06-01T13:22:44;13.27;;;7.80;;
3487;SDS011;38546;48.170;11.724;2023-06-01T13:25:33;11.40;;;8.17;;
3487;SDS011;38546;48.170;11.724;2023-06-01T13:28:23;10.17;;;7.00;;
3487;SDS011;38546;48.170;11.724;2023-06-01T13:31:11;14.33;;;8.93;;
3487;SDS011;38546;48.170;11.724;2023-06-01T13:34:01;9.23;;;7.43;;
3487;SDS011;38546;48.170;11.724;2023-06-01T13:36:51;11.20;;;7.27;;
3487;SDS011;38546;48.170;11.724;2023-06-01T13:39:40;7.73;;;6.73;;
3487;SDS011;38546;48.170;11.724;2023-06-01T13:42:29;9.60;;;7.20;;
3487;SDS011;38546;48.170;11.724;2023-06-01T13:45:19;8.50;;;6.83;;
3487;SDS011;38546;48.170;11.724;2023-06-01T13:48:12;9.80;;;7.50;;
3487;SDS011;38546;48.170;11.724;2023-06-01T13:51:03;10.00;;;7.43;;
3487;SDS011;38546;48.170;11.724;2023-06-01T13:53:53;9.97;;;7.70;;
3487;SDS011;38546;48.170;11.724;2023-06-01T13:56:43;9.87;;;7.30;;
3487;SDS011;38546;48.170;11.724;2023-06-01T13:59:33;9.83;;;8.50;;
3487;SDS011;38546;48.170;11.724;2023-06-01T14:02:24;7.90;;;7.10;;
3487;SDS011;38546;48.170;11.724;2023-06-01T14:05:13;13.60;;;6.90;;
3487;SDS011;38546;48.170;11.724;2023-06-01T14:08:04;9.67;;;7.30;;
3487;SDS011;38546;48.170;11.724;2023-06-01T14:10:54;12.60;;;7.37;;
3487;SDS011;38546;48.170;11.724;2023-06-01T14:13:43;10.80;;;7.20;;
3487;SDS011;38546;48.170;11.724;2023-06-01T14:16:33;10.30;;;7.17;;
3487;SDS011;38546;48.170;11.724;2023-06-01T14:19:22;7.73;;;6.80;;
3487;SDS011;38546;48.170;11.724;2023-06-01T14:22:14;9.00;;;6.47;;
3487;SDS011;38546;48.170;11.724;2023-06-01T14:25:03;7.60;;;6.80;;
3487;SDS011;38546;48.170;11.724;2023-06-01T14:27:54;11.80;;;7.17;;
3487;SDS011;38546;48.170;11.724;2023-06-01T14:30:43;10.90;;;7.40;;
3487;SDS011;38546;48.170;11.724;2023-06-01T14:33:32;9.10;;;6.83;;
3487;SDS011;38546;48.170;11.724;2023-06-01T14:36:21;10.53;;;7.40;;
3487;SDS011;38546;48.170;11.724;2023-06-01T14:39:10;10.30;;;8.07;;
3487;SDS011;38546;48.170;11.724;2023-06-01T14:41:59;19.93;;;8.43;;
3487;SDS011;38546;48.170;11.724;2023-06-01T14:44:49;9.73;;;7.83;;
3487;SDS011;38546;48.170;11.724;2023-06-01T14:47:39;9.13;;;6.80;;
3487;SDS011;38546;48.170;11.724;2023-06-01T14:50:30;8.27;;;7.40;;
3487;SDS011;38546;48.170;11.724;2023-06-01T14:53:19;12.57;;;7.13;;
3487;SDS011;38546;48.170;11.724;2023-06-01T14:56:09;9.90;;;7.50;;
3487;SDS011;38546;48.170;11.724;2023-06-01T14:58:59;11.07;;;7.07;;
3487;SDS011;38546;48.170;11.724;2023-06-01T15:01:48;11.20;;;8.20;;
3487;SDS011;38546;48.170;11.724;2023-06-01T15:04:38;8.53;;;6.80;;
3487;SDS011;38546;48.170;11.724;2023-06-01T15:07:27;11.30;;;6.93;;
3487;SDS011;38546;48.170;11.724;2023-06-01T15:10:16;10.10;;;6.83;;
3487;SDS011;38546;48.170;11.724;2023-06-01T15:13:06;7.53;;;6.47;;
3487;SDS011;38546;48.170;11.724;2023-06-01T15:15:56;8.67;;;6.13;;
3487;SDS011;38546;48.170;11.724;2023-06-01T15:18:45;6.77;;;6.10;;
3487;SDS011;38546;48.170;11.724;2023-06-01T15:21:35;7.70;;;6.90;;
3487;SDS011;38546;48.170;11.724;2023-06-01T15:24:24;15.80;;;7.40;;
3487;SDS011;38546;48.170;11.724;2023-06-01T15:27:13;8.43;;;6.87;;
3487;SDS011;38546;48.170;11.724;2023-06-01T15:30:02;9.47;;;6.80;;
3487;SDS011;38546;48.170;11.724;2023-06-01T15:32:52;19.30;;;8.77;;
3487;SDS011;38546;48.170;11.724;2023-06-01T15:35:41;8.00;;;7.13;;
3487;SDS011;38546;48.170;11.724;2023-06-01T15:38:30;8.10;;;6.50;;
3487;SDS011;38546;48.170;11.724;2023-06-01T15:41:19;7.40;;;6.70;;
3487;SDS011;38546;48.170;11.724;2023-06-01T15:44:09;8.30;;;6.67;;
3487;SDS011;38546;48.170;11.724;2023-06-01T15:46:58;11.43;;;6.90;;
3487;SDS011;38546;48.170;11.724;2023-06-01T15:49:49;10.43;;;6.87;;
3487;SDS011;38546;48.170;11.724;2023-06-01T15:52:38;10.77;;;7.13;;
3487;SDS011;38546;48.170;11.724;2023-06-01T15:55:27;8.63;;;6.30;;
3487;SDS011;38546;48.170;11.724;2023-06-01T15:58:16;9.37;;;6.70;;
3487;SDS011;38546;48.170;11.724;2023-06-01T16:01:05;7.07;;;6.37;;
3487;SDS011;38546;48.170;11.724;2023-06-01T16:03:55;6.90;;;6.20;;
3487;SDS011;38546;48.170;11.724;2023-06-01T16:06:44;15.13;;;6.70;;
3487;SDS011;38546;48.170;11.724;2023-06-01T16:09:33;10.77;;;6.40;;
3487;SDS011;38546;48.170;11.724;2023-06-01T16:12:23;8.63;;;6.33;;
3487;SDS011;38546;48.170;11.724;2023-06-01T16:15:11;7.20;;;5.83;;
3487;SDS011;38546;48.170;11.724;2023-06-01T16:18:00;8.23;;;6.27;;
3487;SDS011;38546;48.170;11.724;2023-06-01T16:20:50;11.27;;;6.27;;
3487;SDS011;38546;48.170;11.724;2023-06-01T16:23:39;7.53;;;6.23;;
3487;SDS011;38546;48.170;11.724;2023-06-01T16:26:28;10.20;;;7.30;;
3487;SDS011;38546;48.170;11.724;2023-06-01T16:29:17;10.43;;;6.83;;
3487;SDS011;38546;48.170;11.724;2023-06-01T16:32:06;8.27;;;6.80;;
3487;SDS011;38546;48.170;11.724;2023-06-01T16:34:56;15.97;;;6.50;;
3487;SDS011;38546;48.170;11.724;2023-06-01T16:37:45;8.67;;;6.23;;
3487;SDS011;38546;48.170;11.724;2023-06-01T16:40:34;6.83;;;6.13;;
3487;SDS011;38546;48.170;11.724;2023-06-01T16:43:23;6.47;;;5.87;;
3487;SDS011;38546;48.170;11.724;2023-06-01T16:46:12;8.87;;;6.00;;
3487;SDS011;38546;48.170;11.724;2023-06-01T16:49:01;9.13;;;6.63;;
3487;SDS011;38546;48.170;11.724;2023-06-01T16:51:50;8.23;;;6.40;;
3487;SDS011;38546;48.170;11.724;2023-06-01T16:54:39;9.87;;;6.27;;
3487;SDS011;38546;48.170;11.724;2023-06-01T16:57:28;7.50;;;6.00;;
3487;SDS011;38546;48.170;11.724;2023-06-01T17:00:18;9.93;;;6.43;;
3487;SDS011;38546;48.170;11.724;2023-06-01T17:03:07;8.67;;;7.10;;
3487;SDS011;38546;48.170;11.724;2023-06-01T17:05:58;7.90;;;6.50;;
3487;SDS011;38546;48.170;11.724;2023-06-01T17:08:47;7.93;;;6.67;;
3487;SDS011;38546;48.170;11.724;2023-06-01T17:11:37;8.57;;;6.87;;
3487;SDS011;38546;48.170;11.724;2023-06-01T17:14:26;8.20;;;7.30;;
3487;SDS011;38546;48.170;11.724;2023-06-01T17:17:15;11.77;;;6.73;;
3487;SDS011;38546;48.170;11.724;2023-06-01T17:20:05;8.00;;;6.50;;
3487;SDS011;38546;48.170;11.724;2023-06-01T17:22:55;7.20;;;6.50;;
3487;SDS011;38546;48.170;11.724;2023-06-01T17:25:44;7.07;;;6.37;;